createdAt,value
2019-02-19T00:00:21.870Z,101786.13
2019-02-19T00:02:53.307Z,101788.36
2019-02-19T00:05:27.652Z,101788.95
2019-02-19T00:07:58.681Z,101793.85
2019-02-19T00:10:32.831Z,101793.26
2019-02-19T00:13:04.484Z,101793.78
2019-02-19T00:15:35.406Z,101794.85
2019-02-19T00:18:10.750Z,101795.38
2019-02-19T00:20:46.018Z,101789.95
2019-02-19T00:23:17.229Z,101798.02
2019-02-19T00:25:52.425Z,101801.28
2019-02-19T00:28:22.571Z,101806.14
2019-02-19T00:30:52.312Z,101796.14
2019-02-19T00:33:25.262Z,101801.28
2019-02-19T00:35:59.190Z,101802.04
2019-02-19T00:38:29.563Z,101804.67
2019-02-19T00:40:59.201Z,101806.75
2019-02-19T00:43:33.161Z,101809.11
2019-02-19T00:46:07.130Z,101810.10
2019-02-19T00:48:39.487Z,101806.72
2019-02-19T00:51:11.150Z,101814.21
2019-02-19T00:53:41.674Z,101819.80
2019-02-19T00:56:14.662Z,101826.48
2019-02-19T00:58:44.957Z,101827.25
2019-02-19T01:01:18.732Z,101829.20
2019-02-19T01:03:53.290Z,101830.63
2019-02-19T01:06:25.329Z,101816.25
2019-02-19T01:08:56.889Z,101824.14
2019-02-19T01:11:31.604Z,101819.31
2019-02-19T01:14:09.064Z,101828.88
2019-02-19T01:16:41.554Z,101824.27
2019-02-19T01:19:16.770Z,101825.58
2019-02-19T01:21:47.245Z,101828.76
2019-02-19T01:24:17.881Z,101832.38
2019-02-19T01:26:51.899Z,101829.16
2019-02-19T01:29:24.961Z,101827.00
2019-02-19T01:31:54.882Z,101828.66
2019-02-19T01:34:32.242Z,101822.52
2019-02-19T01:37:05.262Z,101827.05
2019-02-19T01:39:37.576Z,101823.73
2019-02-19T01:42:09.616Z,101826.77
2019-02-19T01:44:43.796Z,101821.92
2019-02-19T01:47:14.010Z,101832.00
2019-02-19T01:49:48.462Z,101825.54
2019-02-19T01:52:23.579Z,101827.94
2019-02-19T01:54:54.358Z,101828.69
2019-02-19T01:57:28.547Z,101832.94
2019-02-19T01:59:58.377Z,101829.63
2019-02-19T02:02:32.600Z,101830.37
2019-02-19T02:05:05.624Z,101827.07
2019-02-19T02:07:38.207Z,101833.23
2019-02-19T02:10:11.850Z,101833.23
2019-02-19T02:12:44.512Z,101840.00
2019-02-19T02:15:18.027Z,101838.89
2019-02-19T02:17:47.843Z,101832.64
2019-02-19T02:20:19.257Z,101829.64
2019-02-19T02:27:43.215Z,101834.97
2019-02-19T02:30:13.406Z,101832.66
2019-02-19T02:32:50.203Z,101837.64
2019-02-19T02:35:21.477Z,101838.91
2019-02-19T02:37:52.454Z,101829.81
2019-02-19T02:40:22.597Z,101832.25
2019-02-19T02:42:53.006Z,101828.25
2019-02-19T02:45:24.803Z,101831.50
2019-02-19T02:47:59.142Z,101832.84
2019-02-19T02:50:30.142Z,101825.11
2019-02-19T02:53:00.915Z,101824.13
2019-02-19T02:55:33.381Z,101826.68
2019-02-19T02:58:10.671Z,101824.41
2019-02-19T03:00:39.616Z,101826.87
2019-02-19T03:03:11.181Z,101831.15
2019-02-19T03:05:49.814Z,101831.15
2019-02-19T03:08:22.600Z,101821.45
2019-02-19T03:10:53.453Z,101828.02
2019-02-19T03:13:24.736Z,101824.48
2019-02-19T03:16:02.207Z,101824.58
2019-02-19T03:18:33.222Z,101831.76
2019-02-19T03:21:03.196Z,101830.77
2019-02-19T03:23:35.935Z,101832.06
2019-02-19T03:26:05.659Z,101834.92
2019-02-19T03:28:36.094Z,101827.80
2019-02-19T03:31:05.491Z,101837.50
2019-02-19T03:33:39.734Z,101835.97
2019-02-19T03:36:11.501Z,101821.05
2019-02-19T03:38:43.356Z,101826.97
2019-02-19T03:41:13.978Z,101824.25
2019-02-19T03:43:47.843Z,101823.49
2019-02-19T03:46:23.805Z,101827.30
2019-02-19T03:48:55.928Z,101817.94
2019-02-19T03:51:27.046Z,101815.53
2019-02-19T03:53:59.109Z,101820.95
2019-02-19T03:56:30.651Z,101815.69
2019-02-19T03:59:03.369Z,101811.80
2019-02-19T04:01:35.488Z,101808.86
2019-02-19T04:04:05.843Z,101813.86
2019-02-19T04:06:41.077Z,101814.13
2019-02-19T04:09:14.289Z,101812.95
2019-02-19T04:11:50.044Z,101818.03
2019-02-19T04:14:19.877Z,101817.58
2019-02-19T04:16:52.653Z,101816.55
2019-02-19T04:19:25.038Z,101815.42
2019-02-19T04:21:58.829Z,101812.95
2019-02-19T04:24:32.918Z,101822.98
2019-02-19T04:27:02.878Z,101817.59
2019-02-19T04:29:34.430Z,101821.06
2019-02-19T04:32:08.882Z,101816.34
2019-02-19T04:34:38.310Z,101819.11
2019-02-19T04:37:08.871Z,101825.39
2019-02-19T04:39:40.207Z,101816.30
2019-02-19T04:42:10.844Z,101819.73
2019-02-19T04:44:44.817Z,101831.61
2019-02-19T04:47:18.270Z,101828.78
2019-02-19T04:49:48.955Z,101831.77
2019-02-19T04:52:19.169Z,101846.43
2019-02-19T04:54:52.150Z,101848.94
2019-02-19T04:57:21.957Z,101846.81
2019-02-19T04:59:56.855Z,101837.75
2019-02-19T05:02:28.839Z,101845.73
2019-02-19T05:05:01.982Z,101846.18
2019-02-19T05:07:35.092Z,101844.22
2019-02-19T05:10:09.020Z,101853.22
2019-02-19T05:12:44.718Z,101852.94
2019-02-19T05:15:14.819Z,101845.70
2019-02-19T05:17:45.968Z,101850.30
2019-02-19T05:20:16.065Z,101849.45
2019-02-19T05:22:45.399Z,101851.80
2019-02-19T05:25:17.127Z,101848.70
2019-02-19T05:27:47.109Z,101846.33
2019-02-19T05:30:18.516Z,101844.14
2019-02-19T05:32:49.803Z,101847.16
2019-02-19T05:35:20.674Z,101836.55
2019-02-19T05:37:51.937Z,101839.18
2019-02-19T05:40:22.855Z,101836.60
2019-02-19T05:42:52.415Z,101832.51
2019-02-19T05:45:25.035Z,101841.78
2019-02-19T05:47:54.435Z,101840.22
2019-02-19T05:50:27.551Z,101849.32
2019-02-19T05:52:56.857Z,101842.00
2019-02-19T05:55:32.683Z,101847.28
2019-02-19T05:58:03.186Z,101844.19
2019-02-19T06:00:33.016Z,101847.18
2019-02-19T06:03:06.011Z,101857.52
2019-02-19T06:05:38.546Z,101855.76
2019-02-19T06:08:12.167Z,101850.39
2019-02-19T06:10:44.133Z,101848.02
2019-02-19T06:13:15.638Z,101845.61
2019-02-19T06:15:45.774Z,101836.63
2019-02-19T06:18:18.263Z,101836.47
2019-02-19T06:20:50.372Z,101837.46
2019-02-19T06:23:23.767Z,101841.77
2019-02-19T06:25:57.295Z,101840.06
2019-02-19T06:28:32.918Z,101837.87
2019-02-19T06:31:05.017Z,101839.45
2019-02-19T06:33:37.939Z,101842.89
2019-02-19T06:36:07.234Z,101842.47
2019-02-19T06:38:36.777Z,101848.55
2019-02-19T06:41:16.042Z,101846.00
2019-02-19T06:43:50.223Z,101850.37
2019-02-19T06:46:25.780Z,101850.52
2019-02-19T06:48:59.497Z,101854.28
2019-02-19T06:51:31.773Z,101848.93
2019-02-19T06:54:03.692Z,101850.61
2019-02-19T06:56:34.185Z,101849.91
2019-02-19T06:59:07.776Z,101858.69
2019-02-19T07:02:47.173Z,101860.46
2019-02-19T07:05:21.012Z,101857.24
2019-02-19T07:07:51.662Z,101862.55
2019-02-19T07:10:22.414Z,101866.67
2019-02-19T07:12:55.022Z,101870.44
2019-02-19T07:15:28.164Z,101871.05
2019-02-19T07:18:02.316Z,101868.13
2019-02-19T07:20:42.345Z,101864.13
2019-02-19T07:23:13.177Z,101868.28
2019-02-19T07:28:23.686Z,101874.17
2019-02-19T07:30:54.672Z,101873.03
2019-02-19T07:33:26.798Z,101881.11
2019-02-19T07:36:00.189Z,101876.38
2019-02-19T07:38:30.382Z,101880.00
2019-02-19T07:41:03.582Z,101883.89
2019-02-19T07:43:33.595Z,101883.47
2019-02-19T07:46:02.797Z,101879.41
2019-02-19T07:48:32.662Z,101880.60
2019-02-19T07:53:46.007Z,101890.17
2019-02-19T07:56:25.285Z,101888.14
2019-02-19T07:59:00.146Z,101887.70
2019-02-19T08:01:31.464Z,101884.77
2019-02-19T08:04:09.263Z,101894.16
2019-02-19T08:06:49.457Z,101896.07
2019-02-19T08:09:19.793Z,101887.64
2019-02-19T08:11:58.465Z,101886.80
2019-02-19T08:14:28.635Z,101890.25
2019-02-19T08:16:59.461Z,101875.45
2019-02-19T08:19:31.010Z,101884.69
2019-02-19T08:22:02.444Z,101888.61
2019-02-19T08:24:38.442Z,101885.98
2019-02-19T08:27:16.364Z,101884.91
2019-02-19T08:29:45.766Z,101897.62
2019-02-19T08:32:22.451Z,101893.33
2019-02-19T08:34:52.823Z,101899.66
2019-02-19T08:37:27.312Z,101897.00
2019-02-19T08:39:56.596Z,101904.70
2019-02-19T08:42:28.025Z,101894.52
2019-02-19T08:47:43.007Z,101905.20
2019-02-19T08:50:16.441Z,101906.92
2019-02-19T08:52:48.903Z,101905.57
2019-02-19T08:55:25.648Z,101901.52
2019-02-19T09:02:19.585Z,101911.87
2019-02-19T09:04:49.559Z,101909.62
2019-02-19T09:07:20.312Z,101908.87
2019-02-19T09:09:51.369Z,101910.59
2019-02-19T09:12:25.943Z,101908.53
2019-02-19T09:14:55.891Z,101904.83
2019-02-19T09:17:28.084Z,101913.80
2019-02-19T09:19:59.577Z,101913.56
2019-02-19T09:22:30.176Z,101912.84
2019-02-19T09:25:03.885Z,101908.86
2019-02-19T09:27:33.961Z,101907.03
2019-02-19T09:30:03.427Z,101902.45
2019-02-19T09:32:33.398Z,101901.14
2019-02-19T09:35:04.129Z,101904.77
2019-02-19T09:37:36.913Z,101911.38
2019-02-19T09:42:42.468Z,101922.09
2019-02-19T09:45:20.386Z,101918.58
2019-02-19T09:48:01.477Z,101925.32
2019-02-19T09:50:29.554Z,101917.19
2019-02-19T09:53:02.458Z,101916.02
2019-02-19T09:55:35.226Z,101913.78
2019-02-19T09:58:05.459Z,101921.75
2019-02-19T10:00:40.221Z,101914.80
2019-02-19T10:03:11.844Z,101916.27
2019-02-19T10:05:41.867Z,101914.26
2019-02-19T10:08:12.420Z,101916.67
2019-02-19T10:10:43.881Z,101917.16
2019-02-19T10:13:18.613Z,101914.41
2019-02-19T10:15:54.210Z,101911.69
2019-02-19T10:18:27.477Z,101922.76
2019-02-19T10:20:59.799Z,101909.27
2019-02-19T10:23:38.985Z,101912.92
2019-02-19T10:26:08.319Z,101912.81
2019-02-19T10:28:40.254Z,101905.80
2019-02-19T10:31:11.116Z,101905.80
2019-02-19T10:33:42.738Z,101915.89
2019-02-19T10:36:13.832Z,101912.13
2019-02-19T10:38:44.478Z,101907.28
2019-02-19T10:41:19.061Z,101900.00
2019-02-19T10:43:48.584Z,101900.95
2019-02-19T10:46:18.883Z,101899.44
2019-02-19T10:48:47.940Z,101911.23
2019-02-19T10:51:21.050Z,101897.52
2019-02-19T10:53:51.820Z,101901.95
2019-02-19T10:56:21.632Z,101895.24
2019-02-19T11:01:40.541Z,101897.83
2019-02-19T11:04:10.003Z,101904.96
2019-02-19T11:06:44.808Z,101903.05
2019-02-19T11:09:14.987Z,101905.30
2019-02-19T11:11:45.636Z,101911.07
2019-02-19T11:19:38.066Z,101903.82
2019-02-19T11:22:07.088Z,101894.05
2019-02-19T11:24:43.026Z,101894.33
2019-02-19T11:27:18.911Z,101903.63
2019-02-19T11:29:54.890Z,101902.30
2019-02-19T11:32:26.399Z,101904.81
2019-02-19T11:34:54.902Z,101900.54
2019-02-19T11:37:26.663Z,101905.23
2019-02-19T11:39:56.645Z,101920.85
2019-02-19T11:42:28.916Z,101910.30
2019-02-19T11:44:58.833Z,101901.60
2019-02-19T11:47:30.622Z,101903.02
2019-02-19T11:50:01.684Z,101899.20
2019-02-19T11:52:33.415Z,101900.57
2019-02-19T11:55:14.181Z,101897.52
2019-02-19T11:57:44.609Z,101893.95
2019-02-19T12:00:28.236Z,101893.64
2019-02-19T12:03:00.771Z,101887.61
2019-02-19T12:05:33.200Z,101887.94
2019-02-19T12:08:02.222Z,101884.44
2019-02-19T12:10:33.626Z,101876.91
2019-02-19T12:13:03.175Z,101875.88
2019-02-19T12:15:42.543Z,101868.30
2019-02-19T12:18:20.226Z,101874.07
2019-02-19T12:20:50.129Z,101872.77
2019-02-19T12:23:23.323Z,101871.47
2019-02-19T12:25:53.941Z,101866.65
2019-02-19T12:28:25.601Z,101866.41
2019-02-19T12:30:56.084Z,101863.99
2019-02-19T12:33:27.436Z,101850.37
2019-02-19T12:35:57.231Z,101853.38
2019-02-19T12:38:27.343Z,101849.87
2019-02-19T12:41:02.000Z,101844.16
2019-02-19T12:46:11.663Z,101835.53
2019-02-19T12:48:43.683Z,101839.39
2019-02-19T12:51:26.294Z,101828.56
2019-02-19T12:53:53.864Z,101831.07
2019-02-19T12:56:23.773Z,101827.30
2019-02-19T12:58:53.915Z,101823.79
2019-02-19T13:01:29.731Z,101823.00
2019-02-19T13:03:58.744Z,101821.65
2019-02-19T13:06:34.949Z,101833.11
2019-02-19T13:09:07.046Z,101820.59
2019-02-19T13:11:36.889Z,101830.40
2019-02-19T13:14:06.721Z,101827.14
2019-02-19T13:16:44.877Z,101815.41
2019-02-19T13:19:27.764Z,101816.25
2019-02-19T13:21:57.109Z,101805.92
2019-02-19T13:24:28.008Z,101803.54
2019-02-19T13:27:05.081Z,101805.17
2019-02-19T13:29:34.222Z,101805.17
2019-02-19T13:32:04.935Z,101810.35
2019-02-19T13:34:37.290Z,101805.39
2019-02-19T13:37:07.514Z,101802.88
2019-02-19T13:39:41.093Z,101802.05
2019-02-19T13:42:13.118Z,101800.63
2019-02-19T13:44:46.692Z,101800.02
2019-02-19T13:47:18.752Z,101794.03
2019-02-19T13:49:52.932Z,101799.16
2019-02-19T13:52:27.842Z,101799.91
2019-02-19T13:55:02.500Z,101797.39
2019-02-19T13:57:38.665Z,101797.55
2019-02-19T14:00:18.716Z,101793.94
2019-02-19T14:02:53.922Z,101796.07
2019-02-19T14:05:29.299Z,101799.00
2019-02-19T14:08:14.549Z,101797.05
2019-02-19T14:10:43.638Z,101801.09
2019-02-19T14:13:16.051Z,101802.70
2019-02-19T14:15:54.645Z,101797.79
2019-02-19T14:19:33.224Z,101789.63
2019-02-19T14:22:10.734Z,101783.67
2019-02-19T14:26:52.019Z,101786.23
2019-02-19T14:33:27.698Z,101777.02
2019-02-19T14:36:07.900Z,101772.98
2019-02-19T14:38:48.153Z,101771.15
2019-02-19T14:41:34.283Z,101771.52
2019-02-19T14:44:19.553Z,101771.02
2019-02-19T14:47:07.514Z,101771.02
2019-02-19T14:49:47.337Z,101776.70
2019-02-19T14:52:20.173Z,101771.20
2019-02-19T14:55:59.898Z,101780.69
2019-02-19T14:58:35.763Z,101770.58
2019-02-19T15:01:48.363Z,101770.88
2019-02-19T15:06:29.098Z,101776.08
2019-02-19T15:10:06.348Z,101769.63
2019-02-19T15:12:43.340Z,101765.80
2019-02-19T15:15:21.719Z,101760.92
2019-02-19T15:18:04.890Z,101762.02
2019-02-19T15:22:47.041Z,101757.41
2019-02-19T15:28:17.787Z,101758.72
2019-02-19T15:31:18.921Z,101751.08
2019-02-19T15:34:02.693Z,101755.12
2019-02-19T15:36:44.515Z,101751.81
2019-02-19T15:39:18.876Z,101761.82
2019-02-19T15:41:55.015Z,101753.03
2019-02-19T15:44:31.921Z,101763.62
2019-02-19T15:49:10.082Z,101751.30
2019-02-19T15:51:53.952Z,101739.80
2019-02-19T15:55:03.789Z,101747.70
2019-02-19T15:57:41.748Z,101737.08
2019-02-19T16:00:22.291Z,101738.48
2019-02-19T16:03:11.340Z,101738.75
2019-02-19T16:05:47.560Z,101740.45
2019-02-19T16:08:28.125Z,101740.20
2019-02-19T16:11:03.096Z,101725.80
2019-02-19T16:13:38.974Z,101721.19
2019-02-19T16:17:22.312Z,101718.73
2019-02-19T16:20:01.032Z,101724.17
2019-02-19T16:22:40.419Z,101723.59
2019-02-19T16:26:20.490Z,101727.11
2019-02-19T16:29:05.782Z,101722.72
2019-02-19T16:32:42.650Z,101716.42
2019-02-19T16:35:20.127Z,101716.07
2019-02-19T16:38:04.854Z,101712.73
2019-02-19T16:41:40.667Z,101704.03
2019-02-19T16:44:20.912Z,101708.11
2019-02-19T16:46:57.038Z,101705.92
2019-02-19T16:51:35.820Z,101708.03
2019-02-19T16:54:13.010Z,101711.00
2019-02-19T16:56:50.483Z,101711.27
2019-02-19T17:00:31.683Z,101714.24
2019-02-19T17:03:09.552Z,101711.73
2019-02-19T17:05:51.065Z,101714.14
2019-02-19T17:08:30.304Z,101717.86
2019-02-19T17:12:06.179Z,101715.08
2019-02-19T17:14:53.255Z,101705.23
2019-02-19T17:17:31.440Z,101709.52
2019-02-19T17:22:56.162Z,101707.19
2019-02-19T17:25:37.948Z,101704.94
2019-02-19T17:28:20.524Z,101708.13
2019-02-19T17:30:55.183Z,101703.41
2019-02-19T17:33:29.541Z,101710.45
2019-02-19T17:38:14.910Z,101706.31
2019-02-19T17:41:02.935Z,101695.05
2019-02-19T17:43:37.308Z,101697.44
2019-02-19T17:46:14.799Z,101699.26
2019-02-19T17:49:01.616Z,101700.81
2019-02-19T17:51:41.340Z,101696.41
2019-02-19T17:55:01.591Z,101703.71
2019-02-19T17:57:55.722Z,101702.58
2019-02-19T18:00:31.586Z,101705.27
2019-02-19T18:03:18.420Z,101699.83
2019-02-19T18:05:55.970Z,101700.67
2019-02-19T18:08:34.323Z,101704.74
2019-02-19T18:11:16.083Z,101697.39
2019-02-19T18:13:55.343Z,101704.23
2019-02-19T18:17:29.596Z,101702.10
2019-02-19T18:19:59.874Z,101698.55
2019-02-19T18:22:36.454Z,101700.74
2019-02-19T18:25:08.476Z,101702.38
2019-02-19T18:27:41.613Z,101702.62
2019-02-19T18:30:11.757Z,101705.55
2019-02-19T18:32:41.439Z,101704.91
2019-02-19T18:35:11.717Z,101705.38
2019-02-19T18:37:43.249Z,101714.34
2019-02-19T18:40:18.918Z,101718.62
2019-02-19T18:42:48.809Z,101708.20
2019-02-19T18:45:18.360Z,101717.38
2019-02-19T18:47:49.429Z,101720.28
2019-02-19T18:50:25.108Z,101719.42
2019-02-19T18:52:58.140Z,101716.91
2019-02-19T18:55:28.426Z,101712.24
2019-02-19T18:57:58.166Z,101720.64
2019-02-19T19:00:32.694Z,101718.64
2019-02-19T19:03:13.831Z,101723.22
2019-02-19T19:05:48.473Z,101724.77
2019-02-19T19:08:23.757Z,101728.75
2019-02-19T19:10:54.248Z,101731.96
2019-02-19T19:13:26.350Z,101721.04
2019-02-19T19:16:01.939Z,101734.37
2019-02-19T19:18:34.146Z,101729.77
2019-02-19T19:21:07.861Z,101723.51
2019-02-19T19:23:38.949Z,101729.27
2019-02-19T19:26:09.536Z,101727.14
2019-02-19T19:28:43.863Z,101729.92
2019-02-19T19:31:19.287Z,101729.42
2019-02-19T19:33:50.182Z,101728.06
2019-02-19T19:36:21.980Z,101730.25
2019-02-19T19:41:33.713Z,101725.34
2019-02-19T19:44:05.026Z,101719.91
2019-02-19T19:46:35.071Z,101714.73
2019-02-19T19:49:09.359Z,101719.11
2019-02-19T19:51:39.785Z,101721.02
2019-02-19T19:54:12.065Z,101724.30
2019-02-19T19:56:44.781Z,101715.06
2019-02-19T19:59:15.346Z,101713.71
2019-02-19T20:01:47.053Z,101718.30
2019-02-19T20:04:24.835Z,101713.44
2019-02-19T20:06:59.600Z,101720.22
2019-02-19T20:09:29.127Z,101724.57
2019-02-19T20:12:02.628Z,101724.05
2019-02-19T20:14:43.050Z,101719.97
2019-02-19T20:17:13.907Z,101721.86
2019-02-19T20:19:50.532Z,101717.26
2019-02-19T20:22:21.999Z,101729.23
2019-02-19T20:24:52.943Z,101730.06
2019-02-19T20:27:25.275Z,101722.44
2019-02-19T20:29:56.214Z,101728.70
2019-02-19T20:32:25.304Z,101726.80
2019-02-19T20:34:58.521Z,101724.91
2019-02-19T20:37:28.593Z,101725.73
2019-02-19T20:40:01.214Z,101717.84
2019-02-19T20:42:32.343Z,101727.34
2019-02-19T20:45:03.704Z,101722.44
2019-02-19T20:47:37.226Z,101723.80
2019-02-19T20:50:10.403Z,101727.09
2019-02-19T20:52:44.914Z,101728.98
2019-02-19T20:55:15.998Z,101726.02
2019-02-19T20:57:51.436Z,101730.40
2019-02-19T21:00:23.035Z,101726.84
2019-02-19T21:02:58.102Z,101727.09
2019-02-19T21:05:37.137Z,101728.14
2019-02-19T21:08:08.070Z,101734.14
2019-02-19T21:10:40.633Z,101726.52
2019-02-19T21:13:13.352Z,101728.95
2019-02-19T21:15:42.588Z,101740.09
2019-02-19T21:18:19.601Z,101738.21
2019-02-19T21:20:50.251Z,101732.47
2019-02-19T21:23:25.092Z,101730.31
2019-02-19T21:25:55.860Z,101737.91
2019-02-19T21:28:32.139Z,101737.91
2019-02-19T21:31:04.039Z,101728.13
2019-02-19T21:33:45.646Z,101728.95
2019-02-19T21:36:15.220Z,101736.80
2019-02-19T21:38:48.026Z,101729.42
2019-02-19T21:41:23.068Z,101733.80
2019-02-19T21:43:56.544Z,101731.34
2019-02-19T21:46:26.373Z,101733.49
2019-02-19T21:49:01.385Z,101734.33
2019-02-19T21:51:30.553Z,101727.54
2019-02-19T21:54:03.146Z,101725.93
2019-02-19T21:56:33.960Z,101721.02
2019-02-19T21:59:06.795Z,101722.16
2019-02-19T22:01:39.017Z,101722.97
2019-02-19T22:04:14.855Z,101719.73
2019-02-19T22:06:46.112Z,101715.37
2019-02-19T22:09:16.029Z,101717.53
2019-02-19T22:11:45.142Z,101712.66
2019-02-19T22:14:16.187Z,101713.44
2019-02-19T22:19:22.066Z,101710.72
2019-02-19T22:22:04.871Z,101710.16
2019-02-19T22:24:36.479Z,101710.16
2019-02-19T22:27:08.583Z,101713.71
2019-02-19T22:29:40.016Z,101702.84
2019-02-19T22:32:10.389Z,101710.99
2019-02-19T22:34:39.498Z,101714.29
2019-02-19T22:37:10.022Z,101711.58
2019-02-19T22:39:40.315Z,101711.05
2019-02-19T22:42:14.208Z,101713.21
2019-02-19T22:44:44.971Z,101713.77
2019-02-19T22:47:22.754Z,101717.59
2019-02-19T22:49:56.563Z,101702.41
2019-02-19T22:52:27.525Z,101701.57
2019-02-19T22:55:33.251Z,101709.20
2019-02-19T22:58:06.219Z,101704.29
2019-02-19T23:00:42.018Z,101701.30
2019-02-19T23:03:17.537Z,101696.39
2019-02-19T23:05:51.925Z,101702.93
2019-02-19T23:08:23.334Z,101700.21
2019-02-19T23:10:53.279Z,101701.36
2019-02-19T23:13:22.783Z,101702.16
2019-02-19T23:15:53.148Z,101708.42
2019-02-19T23:18:22.311Z,101694.00
2019-02-19T23:20:53.346Z,101700.27
2019-02-19T23:23:23.943Z,101698.08
2019-02-19T23:25:53.639Z,101699.75
2019-02-19T23:28:24.740Z,101694.84
2019-02-19T23:30:55.930Z,101690.23
2019-02-19T23:33:25.382Z,101693.23
2019-02-19T23:36:00.423Z,101683.45
2019-02-19T23:38:32.178Z,101682.09
2019-02-19T23:41:01.767Z,101684.80
2019-02-19T23:43:33.507Z,101680.48
2019-02-19T23:46:04.207Z,101681.84
2019-02-19T23:48:33.250Z,101677.24
2019-02-19T23:51:03.019Z,101687.02
2019-02-19T23:53:34.207Z,101678.04
2019-02-19T23:56:08.498Z,101681.59
2019-02-19T23:58:38.497Z,101684.30
